Terminal Aerodrome Forecast
Issued by NWS

Home | Current Version | Previous Version | Text Only | Print | Product List | Glossary On
Versions: 1 2 3 4 5 6 7 8 9 10 11 12 13 14 15 16 17 18 19 20 21 22 23
000
FTUS41 KOKX 010900 AAA
TAFHPN
TAF AMD
KHPN 010900Z 0109/0206 VRB02KT P6SM BKN100
     FM011100 VRB02KT P6SM OVC070
     FM011400 VRB03KT 4SM -SN SCT025 OVC040
     FM011600 17005KT 2SM -SN OVC015
     FM012100 16005KT 1SM -SN OVC008
     FM020300 VRB03KT 1SM -FZRASN OVC008
      AMD NOT SKED=

USA.gov is the U.S. government's official web portal to all federal, state and local government web resources and services.